createdAt,value
2022-08-12T00:00:49.685Z,100751.61
2022-08-12T00:03:37.294Z,100749.61
2022-08-12T00:06:26.985Z,100747.85
2022-08-12T00:09:14.854Z,100744.30
2022-08-12T00:12:02.460Z,100750.27
2022-08-12T00:14:50.061Z,100756.02
2022-08-12T00:17:40.606Z,100755.55
2022-08-12T00:20:30.002Z,100755.00
2022-08-12T00:23:18.174Z,100757.47
2022-08-12T00:26:22.320Z,100759.28
2022-08-12T00:29:13.448Z,100761.71
2022-08-12T00:32:01.686Z,100762.85
2022-08-12T00:34:53.947Z,100759.98
2022-08-12T00:37:44.732Z,100758.61
2022-08-12T00:40:34.620Z,100756.09
2022-08-12T00:43:08.530Z,100757.82
2022-08-12T00:45:52.678Z,100758.40
2022-08-12T00:48:23.013Z,100760.46
2022-08-12T00:50:55.363Z,100759.46
2022-08-12T00:53:26.463Z,100758.69
2022-08-12T00:55:58.382Z,100760.95
2022-08-12T00:58:30.273Z,100762.30
2022-08-12T01:01:03.788Z,100765.52
2022-08-12T01:04:02.640Z,100766.01
2022-08-12T01:06:53.942Z,100761.94
2022-08-12T01:09:43.270Z,100762.70
2022-08-12T01:12:15.570Z,100760.45
2022-08-12T01:14:46.792Z,100760.09
2022-08-12T01:17:16.824Z,100764.48
2022-08-12T01:19:51.518Z,100762.52
2022-08-12T01:22:31.288Z,100756.47
2022-08-12T01:25:11.670Z,100754.40
2022-08-12T01:27:43.097Z,100749.36
2022-08-12T01:30:15.810Z,100749.80
2022-08-12T01:32:50.016Z,100741.80
2022-08-12T01:35:21.285Z,100739.52
2022-08-12T01:37:58.398Z,100738.18
2022-08-12T01:40:37.212Z,100738.98
2022-08-12T01:43:10.072Z,100732.73
2022-08-12T01:45:47.624Z,100738.86
2022-08-12T01:48:20.217Z,100734.61
2022-08-12T01:51:06.208Z,100737.19
2022-08-12T01:53:51.122Z,100736.59
2022-08-12T01:56:24.679Z,100737.14
2022-08-12T01:59:16.149Z,100738.89
2022-08-12T02:01:50.556Z,100736.15
2022-08-12T02:04:49.910Z,100734.42
2022-08-12T02:07:49.922Z,100736.02
2022-08-12T02:10:52.032Z,100739.02
2022-08-12T02:13:49.064Z,100737.30
2022-08-12T02:16:37.687Z,100740.60
2022-08-12T02:19:22.994Z,100740.60
2022-08-12T02:22:09.995Z,100738.11
2022-08-12T02:24:42.197Z,100738.67
2022-08-12T02:27:14.794Z,100741.05
2022-08-12T02:29:44.719Z,100740.58
2022-08-12T02:32:16.162Z,100741.41
2022-08-12T02:34:46.138Z,100735.16
2022-08-12T02:37:18.271Z,100731.30
2022-08-12T02:39:50.672Z,100729.40
2022-08-12T02:42:23.140Z,100728.90
2022-08-12T02:44:55.723Z,100729.65
2022-08-12T02:47:58.340Z,100726.44
2022-08-12T02:50:22.976Z,100725.64
2022-08-12T02:52:53.080Z,100726.97
2022-08-12T02:55:34.013Z,100721.81
2022-08-12T02:58:12.473Z,100722.31
2022-08-12T03:00:45.095Z,100715.81
2022-08-12T03:03:16.989Z,100717.43
2022-08-12T03:05:50.449Z,100718.02
2022-08-12T03:08:32.800Z,100720.10
2022-08-12T03:11:12.096Z,100723.19
2022-08-12T03:13:51.394Z,100724.30
2022-08-12T03:16:22.974Z,100725.85
2022-08-12T03:18:54.059Z,100729.47
2022-08-12T03:22:05.670Z,100728.13
2022-08-12T03:24:24.368Z,100731.27
2022-08-12T03:27:00.269Z,100726.61
2022-08-12T03:29:33.431Z,100729.00
2022-08-12T03:32:35.787Z,100731.07
2022-08-12T03:35:40.993Z,100729.65
2022-08-12T03:38:15.921Z,100729.89
2022-08-12T03:41:15.915Z,100727.05
2022-08-12T03:44:11.069Z,100725.09
2022-08-12T03:47:03.182Z,100725.73
2022-08-12T03:49:52.218Z,100726.69
2022-08-12T03:52:40.109Z,100729.68
2022-08-12T03:55:28.060Z,100731.42
2022-08-12T03:58:15.052Z,100729.89
2022-08-12T04:00:45.757Z,100726.45
2022-08-12T04:03:30.685Z,100725.64
2022-08-12T04:06:00.277Z,100726.73
2022-08-12T04:08:31.158Z,100728.77
2022-08-12T04:11:19.198Z,100730.93
2022-08-12T04:13:49.861Z,100730.17
2022-08-12T04:16:25.547Z,100731.48
2022-08-12T04:18:58.533Z,100730.68
2022-08-12T04:21:28.424Z,100730.01
2022-08-12T04:23:58.409Z,100735.27
2022-08-12T04:26:31.625Z,100736.05
2022-08-12T04:29:09.954Z,100731.63
2022-08-12T04:31:45.053Z,100733.80
2022-08-12T04:34:22.396Z,100731.85
2022-08-12T04:37:19.499Z,100733.40
2022-08-12T04:40:03.038Z,100736.59
2022-08-12T04:43:59.646Z,100735.77
2022-08-12T04:46:51.314Z,100733.59
2022-08-12T04:49:24.856Z,100735.02
2022-08-12T04:51:59.099Z,100738.28
2022-08-12T04:54:31.374Z,100740.34
2022-08-12T04:57:20.096Z,100742.73
2022-08-12T04:59:53.441Z,100744.64
2022-08-12T05:02:26.749Z,100746.67
2022-08-12T05:05:00.800Z,100747.70
2022-08-12T05:07:31.071Z,100748.70
2022-08-12T05:10:02.239Z,100747.88
2022-08-12T05:12:37.179Z,100749.33
2022-08-12T05:15:18.896Z,100752.84
2022-08-12T05:17:59.741Z,100754.16
2022-08-12T05:20:32.249Z,100748.35
2022-08-12T05:23:13.312Z,100748.93
2022-08-12T05:25:45.347Z,100748.73
2022-08-12T05:28:18.010Z,100751.52
2022-08-12T05:30:48.575Z,100756.73
2022-08-12T05:33:31.237Z,100750.72
2022-08-12T05:36:01.343Z,100746.60
2022-08-12T05:38:50.879Z,100743.77
2022-08-12T05:41:21.553Z,100743.51
2022-08-12T05:44:04.714Z,100741.02
2022-08-12T05:46:36.427Z,100745.15
2022-08-12T05:49:09.656Z,100748.48
2022-08-12T05:51:42.103Z,100744.43
2022-08-12T05:54:13.840Z,100742.98
2022-08-12T05:56:43.854Z,100743.19
2022-08-12T05:59:13.436Z,100742.39
2022-08-12T06:02:12.242Z,100743.12
2022-08-12T06:04:32.670Z,100743.31
2022-08-12T06:08:00.793Z,100740.33
2022-08-12T06:09:56.683Z,100741.30
2022-08-12T06:12:26.064Z,100743.64
2022-08-12T06:14:55.130Z,100743.72
2022-08-12T06:17:24.720Z,100743.67
2022-08-12T06:20:27.434Z,100744.11
2022-08-12T06:22:44.242Z,100747.29
2022-08-12T06:25:19.199Z,100745.91
2022-08-12T06:28:07.300Z,100746.94
2022-08-12T06:30:39.487Z,100754.02
2022-08-12T06:33:23.004Z,100747.31
2022-08-12T06:35:57.821Z,100748.05
2022-08-12T06:38:30.892Z,100744.91
2022-08-12T06:41:19.401Z,100741.55
2022-08-12T06:44:04.504Z,100743.02
2022-08-12T06:46:38.179Z,100746.17
2022-08-12T06:49:09.849Z,100747.30
2022-08-12T06:51:38.971Z,100749.94
2022-08-12T06:54:09.969Z,100746.13
2022-08-12T06:57:03.088Z,100745.41
2022-08-12T06:59:29.934Z,100746.23
2022-08-12T07:01:59.372Z,100744.46
2022-08-12T07:04:37.420Z,100742.00
2022-08-12T07:07:09.145Z,100738.88
2022-08-12T07:10:04.540Z,100738.79
2022-08-12T07:12:33.379Z,100730.81
2022-08-12T07:15:02.769Z,100726.77
2022-08-12T07:17:36.998Z,100720.73
2022-08-12T07:20:20.101Z,100721.25
2022-08-12T07:22:50.721Z,100714.81
2022-08-12T07:25:40.467Z,100717.77
2022-08-12T07:28:16.414Z,100721.17
2022-08-12T07:30:48.655Z,100717.96
2022-08-12T07:33:22.376Z,100714.45
2022-08-12T07:35:53.535Z,100707.84
2022-08-12T07:38:30.769Z,100706.94
2022-08-12T07:41:05.946Z,100702.13
2022-08-12T07:43:39.110Z,100703.55
2022-08-12T07:46:11.314Z,100704.89
2022-08-12T07:48:43.137Z,100704.89
2022-08-12T07:51:25.118Z,100707.30
2022-08-12T07:54:00.792Z,100708.25
2022-08-12T07:56:32.508Z,100704.77
2022-08-12T07:59:02.710Z,100707.98
2022-08-12T08:01:33.131Z,100711.36
2022-08-12T08:04:26.113Z,100715.61
2022-08-12T08:06:57.326Z,100714.59
2022-08-12T08:09:26.944Z,100720.92
2022-08-12T08:12:19.053Z,100719.24
2022-08-12T08:14:50.543Z,100720.63
2022-08-12T08:17:21.817Z,100724.05
2022-08-12T08:20:03.842Z,100720.30
2022-08-12T08:22:41.921Z,100721.03
2022-08-12T08:25:20.449Z,100719.99
2022-08-12T08:28:04.140Z,100715.99
2022-08-12T08:30:34.367Z,100712.89
2022-08-12T08:33:15.523Z,100712.79
2022-08-12T08:35:54.472Z,100706.27
2022-08-12T08:38:31.932Z,100707.55
2022-08-12T08:42:15.682Z,100707.02
2022-08-12T08:44:11.579Z,100703.44
2022-08-12T08:46:44.129Z,100697.17
2022-08-12T08:49:26.781Z,100692.08
2022-08-12T08:51:56.533Z,100692.77
2022-08-12T08:54:25.800Z,100689.38
2022-08-12T08:56:54.999Z,100690.44
2022-08-12T08:59:24.270Z,100684.71
2022-08-12T09:01:54.134Z,100678.50
2022-08-12T09:05:08.301Z,100676.58
2022-08-12T09:07:17.870Z,100671.37
2022-08-12T09:10:09.236Z,100668.33
2022-08-12T09:13:22.895Z,100663.89
2022-08-12T09:15:56.159Z,100665.48
2022-08-12T09:18:33.345Z,100658.78
2022-08-12T09:21:03.358Z,100658.13
2022-08-12T09:24:00.174Z,100660.90
2022-08-12T09:26:28.397Z,100660.86
2022-08-12T09:29:00.968Z,100656.48
2022-08-12T09:32:04.012Z,100651.19
2022-08-12T09:34:25.860Z,100655.94
2022-08-12T09:36:59.930Z,100657.02
2022-08-12T09:40:05.412Z,100657.05
2022-08-12T09:42:51.493Z,100645.77
2022-08-12T09:46:06.360Z,100644.48
2022-08-12T09:48:20.375Z,100638.20
2022-08-12T09:50:55.649Z,100638.88
2022-08-12T09:53:36.422Z,100642.92
2022-08-12T09:56:57.945Z,100633.33
2022-08-12T09:59:02.819Z,100631.98
2022-08-12T10:01:34.739Z,100624.90
2022-08-12T10:04:20.917Z,100621.52
2022-08-12T10:06:55.317Z,100611.20
2022-08-12T10:09:28.613Z,100604.72
2022-08-12T10:12:33.889Z,100592.71
2022-08-12T10:15:03.391Z,100602.55
2022-08-12T10:17:32.903Z,100593.88
2022-08-12T10:20:02.875Z,100595.47
2022-08-12T10:22:36.858Z,100590.63
2022-08-12T10:25:51.659Z,100585.55
2022-08-12T10:29:02.416Z,100578.45
2022-08-12T10:32:20.218Z,100583.56
2022-08-12T10:34:26.594Z,100576.43
2022-08-12T10:36:58.645Z,100579.27
2022-08-12T10:40:00.140Z,100573.71
2022-08-12T10:42:41.121Z,100572.14
2022-08-12T10:45:18.342Z,100568.91
2022-08-12T10:48:15.940Z,100573.40
2022-08-12T10:51:01.778Z,100573.73
2022-08-12T10:53:45.703Z,100568.89
2022-08-12T10:56:17.883Z,100564.76
2022-08-12T10:58:48.570Z,100563.98
2022-08-12T11:01:50.144Z,100562.11
2022-08-12T11:04:24.685Z,100561.34
2022-08-12T11:07:08.001Z,100554.25
2022-08-12T11:09:59.536Z,100554.88
2022-08-12T11:12:57.083Z,100547.05
2022-08-12T11:15:33.135Z,100549.14
2022-08-12T11:18:18.393Z,100548.91
2022-08-12T11:20:49.089Z,100547.09
2022-08-12T11:23:25.387Z,100549.52
2022-08-12T11:26:08.197Z,100544.02
2022-08-12T11:28:38.763Z,100538.73
2022-08-12T11:31:14.170Z,100537.17
2022-08-12T11:34:06.677Z,100539.20
2022-08-12T11:36:39.246Z,100540.04
2022-08-12T11:39:09.980Z,100543.92
2022-08-12T11:41:42.999Z,100541.84
2022-08-12T11:44:35.529Z,100540.53
2022-08-12T11:47:02.039Z,100533.77
2022-08-12T11:49:32.757Z,100531.62
2022-08-12T11:52:04.170Z,100532.55
2022-08-12T11:54:51.217Z,100530.55
2022-08-12T11:58:19.850Z,100526.58
2022-08-12T12:03:02.719Z,100524.20
2022-08-12T12:05:41.512Z,100523.24
2022-08-12T12:08:37.591Z,100514.17
2022-08-12T12:10:59.500Z,100506.19
2022-08-12T12:14:06.554Z,100507.12
2022-08-12T12:16:19.820Z,100508.05
2022-08-12T12:18:49.404Z,100509.48
2022-08-12T12:21:18.336Z,100505.81
2022-08-12T12:24:08.700Z,100507.19
2022-08-12T12:26:38.440Z,100506.62
2022-08-12T12:30:13.432Z,100510.14
2022-08-12T12:32:08.949Z,100504.29
2022-08-12T12:35:12.998Z,100504.27
2022-08-12T12:37:58.963Z,100496.70
2022-08-12T12:40:20.008Z,100506.65
2022-08-12T12:42:57.820Z,100507.67
2022-08-12T12:45:33.404Z,100488.36
2022-08-12T12:48:05.177Z,100481.13
2022-08-12T12:50:45.673Z,100484.81
2022-08-12T12:54:07.070Z,100478.00
2022-08-12T12:56:16.329Z,100474.80
2022-08-12T12:58:46.566Z,100473.02
2022-08-12T13:01:26.570Z,100472.34
2022-08-12T13:04:02.473Z,100470.31
2022-08-12T13:06:32.415Z,100464.52
2022-08-12T13:09:04.352Z,100471.05
2022-08-12T13:11:44.270Z,100469.10
2022-08-12T13:14:28.108Z,100467.67
2022-08-12T13:17:00.982Z,100459.85
2022-08-12T13:19:43.455Z,100457.98
2022-08-12T13:22:18.010Z,100455.77
2022-08-12T13:24:52.230Z,100451.30
2022-08-12T13:27:34.966Z,100451.14
2022-08-12T13:30:12.178Z,100444.29
2022-08-12T13:32:56.836Z,100437.86
2022-08-12T13:36:02.652Z,100439.53
2022-08-12T13:38:26.522Z,100433.05
2022-08-12T13:41:11.236Z,100431.77
2022-08-12T13:43:41.920Z,100427.38
2022-08-12T13:46:14.848Z,100434.80
2022-08-12T13:48:45.122Z,100431.71
2022-08-12T13:51:24.305Z,100432.73
2022-08-12T13:53:57.605Z,100434.26
2022-08-12T13:56:34.719Z,100426.56
2022-08-12T13:59:08.627Z,100425.10
2022-08-12T14:01:41.058Z,100422.96
2022-08-12T14:04:11.368Z,100428.88
2022-08-12T14:06:41.383Z,100420.40
2022-08-12T14:09:17.450Z,100421.61
2022-08-12T14:11:58.455Z,100425.54
2022-08-12T14:14:31.441Z,100421.73
2022-08-12T14:17:09.929Z,100423.46
2022-08-12T14:20:00.886Z,100422.05
2022-08-12T14:22:31.708Z,100424.66
2022-08-12T14:25:01.482Z,100419.66
2022-08-12T14:28:04.146Z,100419.89
2022-08-12T14:30:24.148Z,100420.22
2022-08-12T14:33:02.805Z,100416.78
2022-08-12T14:35:34.103Z,100415.70
2022-08-12T14:38:25.935Z,100411.59
2022-08-12T14:40:57.857Z,100411.02
2022-08-12T14:43:31.450Z,100406.01
2022-08-12T14:46:19.361Z,100411.59
2022-08-12T14:48:50.740Z,100405.49
2022-08-12T14:52:55.965Z,100403.70
2022-08-12T14:57:23.502Z,100409.77
2022-08-12T15:00:11.746Z,100406.59
2022-08-12T15:02:41.106Z,100399.27
2022-08-12T15:05:10.725Z,100402.27
2022-08-12T15:08:05.079Z,100401.06
2022-08-12T15:10:39.214Z,100402.22
2022-08-12T15:13:12.312Z,100402.48
2022-08-12T15:15:45.525Z,100402.10
2022-08-12T15:18:21.091Z,100397.06
2022-08-12T15:20:52.339Z,100393.55
2022-08-12T15:23:29.118Z,100393.47
2022-08-12T15:26:06.108Z,100389.73
2022-08-12T15:28:37.082Z,100385.99
2022-08-12T15:31:21.760Z,100382.11
2022-08-12T15:33:58.125Z,100381.09
2022-08-12T15:36:54.016Z,100378.30
2022-08-12T15:39:17.809Z,100380.30
2022-08-12T15:41:50.424Z,100378.17
2022-08-12T15:44:42.317Z,100381.85
2022-08-12T15:47:10.998Z,100381.69
2022-08-12T15:49:55.072Z,100376.86
2022-08-12T15:52:30.874Z,100375.42
2022-08-12T15:55:06.631Z,100375.66
2022-08-12T15:57:46.376Z,100369.60
2022-08-12T16:00:32.919Z,100369.79
2022-08-12T16:03:08.612Z,100370.95
2022-08-12T16:06:17.080Z,100370.56
2022-08-12T16:08:41.832Z,100364.92
2022-08-12T16:11:15.696Z,100365.09
2022-08-12T16:13:48.691Z,100371.49
2022-08-12T16:16:24.080Z,100370.09
2022-08-12T16:19:00.823Z,100366.91
2022-08-12T16:21:51.991Z,100366.64
2022-08-12T16:24:24.412Z,100369.84
2022-08-12T16:26:56.150Z,100366.48
2022-08-12T16:29:52.687Z,100368.79
2022-08-12T16:32:22.867Z,100371.83
2022-08-12T16:35:05.277Z,100369.83
2022-08-12T16:38:25.760Z,100373.67
2022-08-12T16:40:28.350Z,100370.92
2022-08-12T16:43:04.793Z,100374.44
2022-08-12T16:46:23.211Z,100372.45
2022-08-12T16:48:37.943Z,100371.02
2022-08-12T16:51:10.089Z,100375.35
2022-08-12T16:53:44.230Z,100375.02
2022-08-12T16:56:18.056Z,100378.50
2022-08-12T16:58:47.457Z,100382.36
2022-08-12T17:01:19.738Z,100385.64
2022-08-12T17:04:08.699Z,100388.35
2022-08-12T17:06:42.780Z,100394.16
2022-08-12T17:09:16.769Z,100398.51
2022-08-12T17:11:50.297Z,100398.38
2022-08-12T17:14:23.557Z,100404.98
2022-08-12T17:16:54.856Z,100405.89
2022-08-12T17:20:30.506Z,100408.81
2022-08-12T17:22:17.480Z,100410.28
2022-08-12T17:24:55.955Z,100411.29
2022-08-12T17:27:26.941Z,100414.20
2022-08-12T17:30:04.660Z,100419.94
2022-08-12T17:32:37.415Z,100419.08
2022-08-12T17:35:37.479Z,100421.53
2022-08-12T17:38:13.577Z,100429.02
2022-08-12T17:40:46.256Z,100424.43
2022-08-12T17:43:56.047Z,100425.37
2022-08-12T17:46:12.922Z,100433.27
2022-08-12T17:48:54.559Z,100436.20
2022-08-12T17:51:35.187Z,100436.23
2022-08-12T17:54:21.124Z,100435.17
2022-08-12T17:56:53.362Z,100438.80
2022-08-12T17:59:47.845Z,100440.83
2022-08-12T18:02:30.095Z,100440.35
2022-08-12T18:05:05.401Z,100443.48
2022-08-12T18:07:41.081Z,100444.81
2022-08-12T18:10:12.138Z,100452.42
2022-08-12T18:12:53.504Z,100458.64
2022-08-12T18:15:26.877Z,100453.52
2022-08-12T18:18:17.322Z,100455.81
2022-08-12T18:20:49.953Z,100457.48
2022-08-12T18:23:27.968Z,100461.90
2022-08-12T18:26:18.739Z,100462.27
2022-08-12T18:28:48.650Z,100462.55
2022-08-12T18:31:22.811Z,100467.63
2022-08-12T18:33:52.850Z,100469.44
2022-08-12T18:36:26.375Z,100470.38
2022-08-12T18:38:59.503Z,100478.66
2022-08-12T18:41:36.018Z,100476.45
2022-08-12T18:44:12.322Z,100477.41
2022-08-12T18:46:55.163Z,100474.06
2022-08-12T18:49:44.544Z,100477.86
2022-08-12T18:52:30.542Z,100484.06
2022-08-12T18:55:16.052Z,100487.55
2022-08-12T18:58:06.859Z,100496.47
2022-08-12T19:01:01.118Z,100498.27
2022-08-12T19:03:39.478Z,100499.91
2022-08-12T19:06:16.194Z,100506.50
2022-08-12T19:08:59.600Z,100513.30
2022-08-12T19:11:49.170Z,100513.49
2022-08-12T19:14:39.030Z,100507.20
2022-08-12T19:17:11.545Z,100500.52
2022-08-12T19:20:11.314Z,100502.79
2022-08-12T19:23:21.335Z,100497.94
2022-08-12T19:26:12.544Z,100493.80
2022-08-12T19:28:58.641Z,100496.69
2022-08-12T19:38:46.682Z,100493.18
2022-08-12T19:41:42.849Z,100499.33
2022-08-12T19:45:04.554Z,100497.55
2022-08-12T19:47:39.153Z,100497.72
2022-08-12T19:51:09.084Z,100497.27
2022-08-12T19:54:16.018Z,100500.48
2022-08-12T19:57:42.616Z,100495.02
2022-08-12T20:00:52.079Z,100491.79
2022-08-12T20:03:39.592Z,100491.44
2022-08-12T20:06:21.770Z,100490.01
2022-08-12T20:09:28.190Z,100488.27
2022-08-12T20:12:19.491Z,100485.15
2022-08-12T20:15:10.580Z,100482.79
2022-08-12T20:17:51.153Z,100485.04
2022-08-12T20:20:28.284Z,100485.77
2022-08-12T20:22:58.204Z,100482.06
2022-08-12T20:25:28.198Z,100481.70
2022-08-12T20:28:21.086Z,100481.71
2022-08-12T20:30:59.285Z,100484.19
2022-08-12T20:33:32.691Z,100484.52
2022-08-12T20:36:42.812Z,100482.78
2022-08-12T20:39:34.129Z,100484.80
2022-08-12T20:42:11.581Z,100484.00
2022-08-12T20:44:44.184Z,100484.35
2022-08-12T20:47:19.580Z,100484.55
2022-08-12T20:49:54.977Z,100481.34
2022-08-12T20:52:30.632Z,100482.30
2022-08-12T20:55:05.161Z,100478.27
2022-08-12T20:58:02.531Z,100478.59
2022-08-12T21:00:34.402Z,100479.04
2022-08-12T21:03:18.297Z,100475.85
2022-08-12T21:06:12.064Z,100476.31
2022-08-12T21:08:45.108Z,100475.69
2022-08-12T21:11:20.261Z,100472.75
2022-08-12T21:13:50.791Z,100470.89
2022-08-12T21:16:35.377Z,100473.34
2022-08-12T21:19:08.145Z,100478.42
2022-08-12T21:21:50.213Z,100479.55
2022-08-12T21:24:32.475Z,100476.21
2022-08-12T21:27:07.391Z,100470.61
2022-08-12T21:29:50.041Z,100470.99
2022-08-12T21:32:46.825Z,100468.89
2022-08-12T21:35:28.391Z,100465.86
2022-08-12T21:38:13.532Z,100462.83
2022-08-12T21:40:55.222Z,100457.98
2022-08-12T21:43:44.455Z,100461.20
2022-08-12T21:46:35.389Z,100455.08
2022-08-12T21:49:53.631Z,100457.83
2022-08-12T21:52:14.637Z,100456.70
2022-08-12T21:54:45.331Z,100453.84
2022-08-12T21:57:15.867Z,100447.88
2022-08-12T21:59:48.466Z,100451.05
2022-08-12T22:02:41.641Z,100446.60
2022-08-12T22:08:52.519Z,100446.33
2022-08-12T22:11:42.351Z,100446.36
2022-08-12T22:14:21.751Z,100442.89
2022-08-12T22:16:56.940Z,100444.02
2022-08-12T22:19:35.011Z,100444.06
2022-08-12T22:22:12.406Z,100443.19
2022-08-12T22:24:46.386Z,100443.30
2022-08-12T22:27:51.316Z,100444.63
2022-08-12T22:30:39.590Z,100448.57
2022-08-12T22:33:15.805Z,100446.23
2022-08-12T22:35:59.665Z,100443.48
2022-08-12T22:39:50.439Z,100440.70
2022-08-12T22:42:41.838Z,100440.38
2022-08-12T22:45:30.598Z,100436.54
2022-08-12T22:48:07.121Z,100435.20
2022-08-12T22:50:37.626Z,100434.22
2022-08-12T22:53:19.313Z,100431.84
2022-08-12T22:55:59.859Z,100430.94
2022-08-12T22:58:42.532Z,100430.38
2022-08-12T23:01:21.533Z,100429.24
2022-08-12T23:04:15.598Z,100427.54
2022-08-12T23:07:07.105Z,100428.61
2022-08-12T23:09:48.049Z,100430.52
2022-08-12T23:12:33.257Z,100433.83
2022-08-12T23:15:06.083Z,100433.99
2022-08-12T23:17:40.868Z,100435.82
2022-08-12T23:20:26.990Z,100434.48
2022-08-12T23:23:08.818Z,100431.18
2022-08-12T23:26:03.691Z,100432.69
2022-08-12T23:28:55.866Z,100432.48
2022-08-12T23:31:30.434Z,100430.32
2022-08-12T23:34:20.441Z,100426.36
2022-08-12T23:37:13.340Z,100423.78
2022-08-12T23:40:15.796Z,100427.20
2022-08-12T23:42:44.355Z,100425.73
2022-08-12T23:45:20.254Z,100428.64
2022-08-12T23:48:01.169Z,100431.30
2022-08-12T23:50:33.758Z,100427.19
2022-08-12T23:53:06.450Z,100430.17
2022-08-12T23:55:49.404Z,100425.81
2022-08-12T23:58:28.430Z,100422.77
